Terminal Aerodrome Forecast
Issued by NWS

Home | Current Version | Previous Version | Text Only | Print | Product List | Glossary Off
Versions: 1 2 3 4 5 6 7 8 9 10 11 12 13 14 15 16 17

000
FTUS43 KGRB 240914 AAA
TAFMTW
TAF AMD
KMTW 240914Z 2409/2506 18011KT P6SM SCT009 OVC040 WS020/21035KT
      TEMPO 2409/2412 1SM TSRA BKN009CB
     FM241200 16006KT P6SM SCT012 OVC040 WS020/21035KT
      TEMPO 2412/2415 5SM -SHRA BKN012
     FM241500 22012G20KT 6SM HZ SCT025 BKN050
     FM242100 26010G18KT P6SM SCT050
     FM250100 27005KT P6SM FEW050=

USA.gov is the U.S. government's official web portal to all federal, state and local government web resources and services.